Time;durP1;ratioP1;P1;durP2;ratioP2;P2;SDS_P1;SDS_P2;PMS_P1;PMS_P2;Temp;Humidity;BMP_temperature;BMP_pressure;BME280_temperature;BME280_humidity;BME280_pressure;Samples;Min_cycle;Max_cycle;Signal;HPM_P1;HPM_P2
2020/12/17 00:02:03;;;;;;;34.77;17.90;;;;;;;5.91;84.30;101560.13;5335881;55;21129;-84
2020/12/17 00:07:08;;;;;;;33.80;17.93;;;;;;;5.89;84.12;101549.68;5376597;55;21105;-84
2020/12/17 00:12:14;;;;;;;36.93;18.13;;;;;;;5.89;84.13;101551.45;5379543;54;21211;-84
2020/12/17 00:17:19;;;;;;;45.77;20.90;;;;;;;5.87;84.17;101544.06;5366515;55;21179;-84
2020/12/17 00:22:25;;;;;;;42.40;19.43;;;;;;;5.86;84.34;101547.60;5240829;55;1134374;-84
2020/12/17 00:27:30;;;;;;;42.47;21.43;;;;;;;5.85;84.29;101545.44;5271724;55;1140338;-84
2020/12/17 00:32:36;;;;;;;40.20;20.33;;;;;;;5.85;84.23;101545.44;5393482;55;21268;-84
2020/12/17 00:37:42;;;;;;;46.43;21.73;;;;;;;5.87;84.27;101534.87;5359501;55;21145;-84
2020/12/17 00:42:48;;;;;;;49.63;21.33;;;;;;;5.86;84.39;101541.89;5375141;55;21065;-84
2020/12/17 00:47:54;;;;;;;43.40;21.17;;;;;;;5.86;84.41;101542.34;5291846;55;1134157;-84
2020/12/17 00:52:59;;;;;;;45.12;19.48;;;;;;;5.85;84.36;101540.64;5280887;54;1140409;-84
2020/12/17 00:58:05;;;;;;;39.80;19.13;;;;;;;5.86;84.31;101535.33;5371590;55;21141;-84
2020/12/17 01:03:10;;;;;;;44.70;19.73;;;;;;;5.88;84.38;101537.89;5380374;55;21443;-84
2020/12/17 01:08:16;;;;;;;38.97;17.77;;;;;;;5.91;84.54;101539.12;5384090;54;21156;-84
2020/12/17 01:13:22;;;;;;;40.43;17.43;;;;;;;5.94;84.36;101537.23;5390196;55;21284;-84
2020/12/17 01:18:28;;;;;;;31.60;16.80;;;;;;;5.98;84.23;101539.23;5379979;55;21155;-84
2020/12/17 01:23:33;;;;;;;35.00;17.30;;;;;;;5.98;84.03;101532.67;5391909;55;21269;-84
2020/12/17 01:28:41;;;;;;;34.77;16.93;;;;;;;5.94;84.08;101532.43;5261342;54;1136316;-84
2020/12/17 01:33:47;;;;;;;35.67;17.33;;;;;;;5.94;84.05;101530.66;5316096;54;1140435;-84
2020/12/17 01:38:52;;;;;;;31.90;16.77;;;;;;;5.94;84.05;101525.87;5398385;54;21275;-85
2020/12/17 01:44:04;;;;;;;40.30;20.70;;;;;;;5.93;84.10;101518.91;5385926;55;21224;-84
2020/12/17 01:49:10;;;;;;;37.03;18.57;;;;;;;5.90;84.34;101520.34;5365276;55;21148;-85
2020/12/17 01:54:16;;;;;;;45.77;21.30;;;;;;;5.86;84.65;101526.14;5377377;55;21197;-84
2020/12/17 01:59:26;;;;;;;36.87;19.33;;;;;;;5.84;84.87;101520.09;5334639;55;1136389;-84
2020/12/17 02:04:31;;;;;;;38.42;18.55;;;;;;;5.85;85.21;101512.62;5291988;54;1140878;-84
2020/12/17 02:09:38;;;;;;;45.07;21.17;;;;;;;5.87;85.36;101512.09;5179460;56;1140357;-84
2020/12/17 02:14:43;;;;;;;52.23;24.60;;;;;;;5.89;85.32;101506.82;5385577;55;21586;-85
2020/12/17 02:19:48;;;;;;;61.23;24.17;;;;;;;5.88;85.82;101506.39;5366923;55;21133;-84
2020/12/17 02:24:54;;;;;;;59.65;23.60;;;;;;;5.82;86.22;101511.89;5251364;55;1136392;-84
2020/12/17 02:30:00;;;;;;;62.83;25.70;;;;;;;5.83;86.15;101515.77;5281372;55;1140330;-85
2020/12/17 02:35:10;;;;;;;68.93;26.47;;;;;;;5.83;86.08;101521.47;5360032;55;21120;-84
2020/12/17 02:40:15;;;;;;;61.47;25.07;;;;;;;5.86;85.94;101518.27;5316728;54;1136312;-84
2020/12/17 02:45:21;;;;;;;69.57;27.80;;;;;;;5.88;86.06;101520.83;5251895;54;1140751;-84
2020/12/17 02:50:26;;;;;;;61.90;26.90;;;;;;;5.86;85.89;101521.34;5245708;55;1138524;-85
2020/12/17 02:55:32;;;;;;;62.33;26.93;;;;;;;5.84;85.73;101516.16;5223342;54;1140164;-85
2020/12/17 03:00:38;;;;;;;55.77;25.20;;;;;;;5.89;85.65;101514.69;5370117;55;21172;-85
2020/12/17 03:05:44;;;;;;;57.77;26.77;;;;;;;5.92;85.54;101514.11;5323319;54;21129;-85
2020/12/17 03:10:49;;;;;;;64.27;28.43;;;;;;;5.92;85.64;101515.88;5350036;55;21127;-84
2020/12/17 03:15:55;;;;;;;56.97;27.00;;;;;;;5.90;85.71;101517.26;5258301;54;1136627;-85
2020/12/17 03:21:00;;;;;;;65.13;28.37;;;;;;;5.86;85.79;101516.09;5278082;54;1140289;-85
2020/12/17 03:26:07;;;;;;;56.13;26.95;;;;;;;5.86;85.79;101516.09;5244864;55;1141271;-85
2020/12/17 03:31:12;;;;;;;66.30;28.80;;;;;;;5.84;85.89;101514.84;5257376;54;1140450;-84
2020/12/17 03:36:18;;;;;;;61.13;26.17;;;;;;;5.84;86.05;101512.67;5315694;54;1140512;-85
2020/12/17 03:41:23;;;;;;;65.97;27.23;;;;;;;5.82;86.07;101502.23;5246345;55;1140817;-84
2020/12/17 03:46:29;;;;;;;63.30;28.83;;;;;;;5.84;85.97;101498.24;5320354;54;1138362;-84
2020/12/17 03:51:34;;;;;;;58.10;25.00;;;;;;;5.88;85.92;101503.34;5353751;54;21173;-85
2020/12/17 03:56:40;;;;;;;71.83;30.50;;;;;;;5.86;86.16;101506.45;5348630;55;21184;-84
2020/12/17 04:01:45;;;;;;;68.80;29.93;;;;;;;5.86;85.98;101506.45;5353543;55;21180;-84
2020/12/17 04:06:51;;;;;;;62.80;27.70;;;;;;;5.87;86.09;101496.34;5360283;55;21123;-84
2020/12/17 04:11:56;;;;;;;68.87;29.67;;;;;;;5.87;86.12;101500.74;5357660;55;21139;-84
2020/12/17 04:17:02;;;;;;;75.00;30.93;;;;;;;5.84;86.29;101498.24;5282990;54;1136315;-85
2020/12/17 04:22:08;;;;;;;84.07;34.40;;;;;;;5.84;86.17;101493.84;5253198;54;1140342;-84
2020/12/17 04:27:14;;;;;;;78.87;32.27;;;;;;;5.86;85.94;101497.72;5342326;54;1138397;-84
2020/12/17 04:32:20;;;;;;;82.07;34.07;;;;;;;5.90;85.90;101497.56;5358971;55;21135;-84
2020/12/17 04:37:25;;;;;;;88.23;34.17;;;;;;;5.95;85.89;101505.26;5286093;54;1136180;-84
2020/12/17 04:42:32;;;;;;;83.00;34.47;;;;;;;5.93;85.84;101507.95;5262322;54;1140293;-84
2020/12/17 04:47:40;;;;;;;90.67;36.90;;;;;;;5.94;85.69;101504.86;5335884;54;1136331;-85
2020/12/17 04:52:45;;;;;;;90.53;38.47;;;;;;;5.93;85.63;101507.09;5368818;55;21469;-84
2020/12/17 04:57:54;;;;;;;95.07;37.03;;;;;;;5.97;85.66;101510.81;5360236;54;21112;-85
2020/12/17 05:03:04;;;;;;;93.03;34.10;;;;;;;5.95;85.67;101507.42;5297642;54;1136359;-85
2020/12/17 05:08:11;;;;;;;92.50;36.17;;;;;;;5.93;85.73;101507.09;5257011;54;1138428;-85
2020/12/17 05:13:18;;;;;;;89.60;36.47;;;;;;;5.94;85.64;101504.86;5322159;54;1138375;-85
2020/12/17 05:18:24;;;;;;;92.13;37.90;;;;;;;5.91;85.57;101507.16;5354952;54;21503;-84
2020/12/17 05:23:30;;;;;;;95.13;38.90;;;;;;;5.90;85.58;101504.13;5350254;55;21138;-84
2020/12/17 05:28:35;;;;;;;92.97;36.70;;;;;;;5.93;85.68;101503.16;5283296;54;1136208;-85
2020/12/17 05:33:44;;;;;;;88.90;35.00;;;;;;;5.90;85.65;101500.19;5248980;54;1140449;-84
2020/12/17 05:38:50;;;;;;;82.23;34.97;;;;;;;5.88;85.55;101498.09;5359999;54;21140;-84
2020/12/17 05:43:55;;;;;;;63.73;27.27;;;;;;;5.92;85.61;101494.42;5365623;55;21155;-85
2020/12/17 05:49:20;;;;;;;80.55;34.90;;;;;;;5.90;85.70;101494.94;5252424;54;1136250;-84
2020/12/17 05:54:27;;;;;;;69.10;29.07;;;;;;;5.90;85.50;101492.31;5253248;54;1140353;-84
2020/12/17 05:59:33;;;;;;;79.30;33.67;;;;;;;5.90;85.66;101493.63;5258931;54;1140491;-84
2020/12/17 06:04:39;;;;;;;72.40;31.90;;;;;;;5.86;85.64;101485.91;5255409;54;1140314;-84
2020/12/17 06:09:48;;;;;;;80.67;35.13;;;;;;;5.78;86.09;101492.81;5348946;55;21164;-84
2020/12/17 06:14:54;;;;;;;65.03;27.80;;;;;;;5.72;86.11;101496.99;5124662;56;1136374;-84
2020/12/17 06:20:03;;;;;;;71.40;31.97;;;;;;;5.71;86.47;101494.43;5167107;56;1140512;-84
2020/12/17 06:25:12;;;;;;;75.63;33.47;;;;;;;5.73;86.35;101497.39;5181909;55;1140541;-84
2020/12/17 06:30:26;;;;;;;67.77;29.77;;;;;;;5.74;86.36;101491.68;5229381;55;1140359;-84
2020/12/17 06:35:44;;;;;;;66.20;25.80;;;;;;;5.69;86.50;101497.12;5314943;55;1138463;-84
2020/12/17 06:40:50;;;;;;;69.23;26.03;;;;;;;5.67;86.65;101484.51;5298047;55;21128;-85
2020/12/17 06:45:55;;;;;;;60.03;25.50;;;;;;;5.66;86.69;101479.72;5350183;55;21202;-85
2020/12/17 06:51:03;;;;;;;47.87;21.13;;;;;;;5.68;86.56;101491.47;5231969;55;1136406;-84
2020/12/17 06:56:17;;;;;;;66.13;31.30;;;;;;;5.68;86.65;101494.55;5255438;55;1140588;-85
2020/12/17 07:01:26;;;;;;;55.33;23.97;;;;;;;5.68;86.81;101498.48;5358008;55;21170;-85
2020/12/17 07:06:32;;;;;;;63.97;28.60;;;;;;;5.68;86.64;101499.80;5346844;55;21147;-84
2020/12/17 07:11:46;;;;;;;64.63;25.97;;;;;;;5.64;86.83;101499.09;5345732;55;21123;-84
2020/12/17 07:17:03;;;;;;;71.23;31.07;;;;;;;5.62;86.83;101489.97;5251823;55;1136526;-85
2020/12/17 07:22:14;;;;;;;68.33;28.62;;;;;;;5.63;86.65;101482.95;5202061;55;1140531;-86
2020/12/17 07:27:32;;;;;;;79.42;33.05;;;;;;;5.64;86.67;101485.52;5234362;55;1140514;-85
2020/12/17 07:32:49;;;;;;;72.80;33.30;;;;;;;5.60;86.73;101485.24;5238377;54;1140595;-86
2020/12/17 07:38:02;;;;;;;70.53;32.27;;;;;;;5.58;86.86;101479.66;5224217;54;1140949;-86
2020/12/17 07:43:21;;;;;;;58.85;22.35;;;;;;;5.61;86.79;101490.03;5222238;54;1141082;-87
2020/12/17 07:48:41;;;;;;;65.37;27.67;;;;;;;5.62;86.64;101471.61;5223418;54;1140786;-86
2020/12/17 07:53:49;;;;;;;77.17;32.50;;;;;;;5.65;86.62;101470.14;5217584;54;1140622;-85
2020/12/17 07:58:55;;;;;;;68.30;28.57;;;;;;;5.62;86.63;101469.44;5220681;54;1140902;-84
2020/12/17 08:04:01;;;;;;;73.80;33.33;;;;;;;5.66;86.48;101469.68;5212099;54;1140656;-86
2020/12/17 08:09:10;;;;;;;72.17;31.73;;;;;;;5.63;86.40;101465.44;5218378;54;1140594;-86
2020/12/17 08:14:15;;;;;;;69.33;31.63;;;;;;;5.72;86.39;101482.56;5227244;54;1140501;-85
2020/12/17 08:19:20;;;;;;;91.67;37.23;;;;;;;5.75;86.24;101481.13;5217105;54;1140841;-86
2020/12/17 08:24:29;;;;;;;104.53;42.00;;;;;;;5.77;86.30;101498.98;5269724;54;1140474;-86
2020/12/17 08:29:34;;;;;;;75.80;32.73;;;;;;;5.86;86.22;101499.03;5220267;54;1142716;-85
2020/12/17 08:34:56;;;;;;;70.47;32.43;;;;;;;5.89;85.87;101497.63;5214306;54;1140904;-86
2020/12/17 08:40:06;;;;;;;68.02;30.97;;;;;;;5.91;85.85;101497.97;5214195;54;1140953;-86
2020/12/17 08:45:14;;;;;;;63.23;25.50;;;;;;;5.89;85.71;101497.17;5204814;54;1140798;-85
2020/12/17 08:50:21;;;;;;;89.70;35.63;;;;;;;5.90;85.67;101494.94;5216692;54;1140828;-86
2020/12/17 08:55:27;;;;;;;353.37;81.03;;;;;;;5.94;85.70;101498.30;5216360;55;1140907;-85
2020/12/17 09:00:33;;;;;;;239.70;95.20;;;;;;;5.95;85.64;101492.13;5213231;55;1142710;-86
2020/12/17 09:05:38;;;;;;;98.87;42.30;;;;;;;5.95;85.71;101497.38;5239016;55;1140420;-86
2020/12/17 09:10:44;;;;;;;73.83;33.60;;;;;;;5.95;85.60;101502.63;5209347;55;1140569;-86
2020/12/17 09:15:58;;;;;;;57.77;26.37;;;;;;;5.96;85.48;101504.31;5202134;55;1140401;-86
2020/12/17 09:21:10;;;;;;;69.22;29.98;;;;;;;5.97;85.43;101502.08;5214040;55;1141040;-86
2020/12/17 09:26:16;;;;;;;65.60;28.60;;;;;;;5.99;85.59;101488.43;5218867;55;1140593;-86
2020/12/17 09:31:26;;;;;;;74.70;33.80;;;;;;;5.97;85.44;101488.95;5215618;55;1140365;-86
2020/12/17 09:36:32;;;;;;;95.70;47.03;;;;;;;5.98;85.52;101494.14;5215561;55;1140428;-87
2020/12/17 09:41:38;;;;;;;63.47;28.53;;;;;;;6.02;85.50;101483.05;5211445;55;1140328;-86
2020/12/17 09:46:46;;;;;;;77.43;32.83;;;;;;;6.04;85.31;101483.84;5220509;55;1140572;-87
2020/12/17 09:52:08;;;;;;;62.10;26.63;;;;;;;6.06;85.42;101487.26;5204343;55;1140385;-86
2020/12/17 09:57:19;;;;;;;71.83;30.50;;;;;;;6.10;85.04;101487.98;5114589;56;1140501;-86
2020/12/17 10:02:25;;;;;;;74.53;32.80;;;;;;;6.13;85.09;101491.31;5203620;54;1140380;-86
2020/12/17 10:07:30;;;;;;;72.80;30.87;;;;;;;6.16;85.04;101488.55;5143774;55;1140388;-86
2020/12/17 10:12:36;;;;;;;74.37;32.67;;;;;;;6.15;84.69;101486.84;5195045;55;1140295;-87
2020/12/17 10:17:41;;;;;;;90.30;49.00;;;;;;;6.16;84.79;101479.36;5195623;54;1140597;-86
2020/12/17 10:22:47;;;;;;;87.00;39.63;;;;;;;6.21;84.75;101477.86;5236594;55;1140834;-87
2020/12/17 10:27:55;;;;;;;68.53;30.17;;;;;;;6.24;84.64;101472.02;5248136;54;1141356;-86
2020/12/17 10:33:01;;;;;;;79.47;35.40;;;;;;;6.24;84.36;101464.13;5283961;54;1140318;-86
2020/12/17 10:38:06;;;;;;;78.20;36.43;;;;;;;6.27;84.45;101458.72;5253113;54;1140390;-85
2020/12/17 10:43:12;;;;;;;69.17;31.60;;;;;;;6.26;83.73;101457.01;5273765;54;1140423;-85
2020/12/17 10:48:17;;;;;;;93.13;43.03;;;;;;;6.29;83.85;101450.31;5250718;55;1140984;-86
2020/12/17 10:53:23;;;;;;;86.80;36.93;;;;;;;6.28;84.22;101437.23;5265604;54;1140867;-86
2020/12/17 10:58:28;;;;;;;89.23;40.40;;;;;;;6.33;83.81;101427.39;5263816;54;1140376;-86
2020/12/17 11:03:34;;;;;;;74.57;36.17;;;;;;;6.37;84.01;101424.16;5288225;54;1140532;-86
2020/12/17 11:08:39;;;;;;;102.80;46.27;;;;;;;6.43;83.81;101433.06;5260264;55;1140920;-86
2020/12/17 11:13:45;;;;;;;68.93;30.47;;;;;;;6.43;84.13;101430.44;5269131;54;1142870;-86
2020/12/17 11:18:51;;;;;;;82.93;38.40;;;;;;;6.43;83.05;101426.49;5276116;55;1140767;-86
2020/12/17 11:23:57;;;;;;;81.20;39.40;;;;;;;6.42;83.55;101419.07;5282905;55;1140780;-87
2020/12/17 11:29:02;;;;;;;97.80;44.50;;;;;;;6.44;83.18;101413.29;5270690;54;1140773;-86
2020/12/17 11:34:08;;;;;;;97.63;45.67;;;;;;;6.45;83.29;101418.94;5291593;54;1140426;-87
2020/12/17 11:39:14;;;;;;;107.77;46.47;;;;;;;6.45;83.25;101403.63;5286926;54;1140437;-88
2020/12/17 11:44:20;;;;;;;113.70;54.60;;;;;;;6.46;83.16;101410.59;5261160;54;1142647;-86
2020/12/17 11:49:25;;;;;;;115.70;52.00;;;;;;;6.50;83.30;101409.53;5276056;54;1142458;-86
2020/12/17 11:54:31;;;;;;;121.63;48.37;;;;;;;6.51;83.27;101412.56;5264417;55;1142573;-86
2020/12/17 11:59:36;;;;;;;82.05;39.08;;;;;;;6.50;83.07;101403.82;5265937;55;1142891;-86
2020/12/17 12:04:42;;;;;;;84.80;37.47;;;;;;;6.53;83.12;101407.63;5264023;55;1140479;-86
2020/12/17 12:09:47;;;;;;;82.47;39.50;;;;;;;6.47;82.33;101384.25;5282668;55;1140774;-87
2020/12/17 12:14:53;;;;;;;85.30;40.27;;;;;;;6.46;82.48;101384.31;5259160;54;1140466;-86
2020/12/17 12:19:58;;;;;;;89.97;44.50;;;;;;;6.47;82.28;101366.31;5277605;55;1140668;-86
2020/12/17 12:25:05;;;;;;;67.10;32.77;;;;;;;6.43;81.42;101374.80;5258287;55;1145582;-86
2020/12/17 12:30:11;;;;;;;55.70;28.40;;;;;;;6.41;81.71;101365.31;5286158;55;1140648;-86
2020/12/17 12:35:16;;;;;;;57.70;29.33;;;;;;;6.32;80.18;101371.36;5274650;54;1140539;-84
2020/12/17 12:40:22;;;;;;;81.27;37.10;;;;;;;6.26;80.58;101362.44;5290978;54;1140501;-86
2020/12/17 12:45:27;;;;;;;73.87;35.90;;;;;;;6.22;79.86;101354.80;5239714;54;1140784;-86
2020/12/17 12:50:40;;;;;;;70.07;34.93;;;;;;;6.20;80.07;101357.95;5264855;54;1140994;-86
2020/12/17 12:55:54;;;;;;;80.00;42.73;;;;;;;6.17;80.06;101364.19;5267796;55;1140823;-86
2020/12/17 13:01:00;;;;;;;93.60;48.20;;;;;;;6.16;79.81;101369.52;5267241;54;1140571;-86
2020/12/17 13:06:08;;;;;;;46.33;25.37;;;;;;;6.13;79.43;101367.02;5266603;54;1140654;-86
2020/12/17 13:11:22;;;;;;;36.77;21.60;;;;;;;6.09;80.13;101370.27;5261630;54;1138258;-86
2020/12/17 13:16:36;;;;;;;48.25;26.20;;;;;;;6.09;79.28;101366.79;5264619;54;1140480;-86
2020/12/17 13:21:42;;;;;;;63.00;35.23;;;;;;;6.07;79.31;101360.75;5276023;54;1140384;-85
2020/12/17 13:26:47;;;;;;;63.40;35.40;;;;;;;6.03;79.61;101363.97;5289306;55;1140334;-85
2020/12/17 13:31:55;;;;;;;72.37;35.73;;;;;;;6.04;80.22;101363.05;5257446;54;1138302;-87
2020/12/17 13:37:00;;;;;;;81.87;46.03;;;;;;;6.04;79.50;101356.95;5287305;54;1141505;-85
2020/12/17 13:42:06;;;;;;;123.62;51.02;;;;;;;6.09;79.74;101362.85;5274989;55;1140406;-85
2020/12/17 13:47:11;;;;;;;78.43;39.63;;;;;;;6.10;79.61;101356.68;5273141;54;1142528;-86
2020/12/17 13:52:17;;;;;;;87.35;40.90;;;;;;;6.07;79.32;101351.56;5257487;55;1138366;-86
2020/12/17 13:57:22;;;;;;;80.27;39.50;;;;;;;6.03;78.78;101340.80;5270655;54;1140932;-86
2020/12/17 14:02:28;;;;;;;79.57;38.97;;;;;;;6.01;79.01;101342.17;5253578;54;1140464;-85
2020/12/17 14:07:49;;;;;;;161.57;73.40;;;;;;;5.96;78.67;101331.02;5264769;55;1138224;-86
2020/12/17 14:12:54;;;;;;;72.82;36.48;;;;;;;5.91;78.63;101333.02;5256994;55;1142617;-86
2020/12/17 14:17:59;;;;;;;89.03;42.97;;;;;;;5.85;78.46;101339.81;5269244;55;1140347;-87
2020/12/17 14:23:04;;;;;;;73.00;39.17;;;;;;;5.75;78.80;101338.08;5265643;55;1138540;-87
2020/12/17 14:28:17;;;;;;;156.12;68.85;;;;;;;5.71;79.14;101346.14;5270271;55;1141367;-86
2020/12/17 14:33:22;;;;;;;;;;;;;;;5.67;79.12;101344.11;5263571;54;1142762;-87
2020/12/17 14:38:29;;;;;;;82.40;42.17;;;;;;;5.59;79.32;101351.02;5291634;54;971488;-86
2020/12/17 14:43:35;;;;;;;124.00;59.30;;;;;;;5.51;79.37;101347.86;5258354;55;1138701;-87
2020/12/17 14:48:40;;;;;;;133.37;65.20;;;;;;;5.47;79.48;101358.12;5273724;54;1142794;-86
2020/12/17 14:53:46;;;;;;;100.17;48.77;;;;;;;5.41;79.78;101349.64;5254680;54;1142456;-86
2020/12/17 14:58:52;;;;;;;116.70;61.07;;;;;;;5.36;79.72;101351.59;5260304;55;1140735;-86
2020/12/17 15:03:57;;;;;;;195.77;106.93;;;;;;;5.34;79.75;101357.40;5263523;55;1142801;-86
2020/12/17 15:09:03;;;;;;;127.43;70.10;;;;;;;5.36;79.99;101366.88;5266123;54;1144765;-86
2020/12/17 15:14:12;;;;;;;109.90;55.40;;;;;;;5.35;79.91;101355.99;5267720;54;1143432;-88
2020/12/17 15:19:18;;;;;;;97.45;46.48;;;;;;;5.29;79.86;101360.20;5252589;55;1140477;-85
2020/12/17 15:24:24;;;;;;;86.80;42.43;;;;;;;5.20;79.62;101356.64;5266116;55;1138651;-87
2020/12/17 15:29:29;;;;;;;97.60;47.33;;;;;;;5.11;79.56;101364.45;5276007;55;1140289;-85
2020/12/17 15:34:35;;;;;;;145.97;67.50;;;;;;;5.03;79.77;101368.31;5267969;55;1140804;-86
2020/12/17 15:39:40;;;;;;;236.73;100.27;;;;;;;5.01;80.15;101365.75;5294146;54;1140389;-86
2020/12/17 15:44:46;;;;;;;88.80;41.30;;;;;;;4.97;80.01;101372.03;5309892;54;1142504;-86
2020/12/17 15:49:55;;;;;;;96.10;46.00;;;;;;;4.97;79.78;101368.55;5267208;54;1140663;-87
2020/12/17 15:55:01;;;;;;;89.43;42.63;;;;;;;4.90;79.88;101366.17;5287419;54;1140540;-86
2020/12/17 16:00:06;;;;;;;98.60;45.37;;;;;;;4.81;79.83;101356.07;5250115;54;1138673;-86
2020/12/17 16:05:14;;;;;;;143.22;60.83;;;;;;;4.68;79.93;101361.87;5235405;54;1138859;-86
2020/12/17 16:10:28;;;;;;;84.80;41.27;;;;;;;4.65;80.14;101370.70;5247884;54;1142805;-86
2020/12/17 16:15:37;;;;;;;95.97;44.10;;;;;;;4.60;80.09;101366.94;5237011;54;1138483;-86
2020/12/17 16:20:49;;;;;;;101.23;46.93;;;;;;;4.50;80.33;101367.37;5267013;54;1138403;-86
2020/12/17 16:25:55;;;;;;;98.13;44.27;;;;;;;4.44;80.36;101351.87;5245216;54;1142693;-86
2020/12/17 16:31:05;;;;;;;76.83;37.47;;;;;;;4.41;80.43;101337.16;5239523;54;1161315;-86
2020/12/17 16:36:10;;;;;;;133.52;46.35;;;;;;;4.39;80.49;101340.75;5250002;54;1138719;-86
2020/12/17 16:41:16;;;;;;;133.90;50.77;;;;;;;4.39;80.72;101349.91;5272975;54;1140675;-87
2020/12/17 16:46:22;;;;;;;141.53;45.40;;;;;;;4.43;80.75;101359.37;5249766;54;1142903;-87
2020/12/17 16:51:29;;;;;;;148.07;48.10;;;;;;;4.48;80.47;101366.11;5295488;54;1142362;-87
2020/12/17 16:56:37;;;;;;;191.13;59.50;;;;;;;4.48;80.63;101377.05;5262508;54;1140708;-87
2020/12/17 17:01:45;;;;;;;124.07;42.53;;;;;;;4.43;80.38;101369.84;5259510;54;1140488;-87
2020/12/17 17:06:53;;;;;;;133.60;52.83;;;;;;;4.45;80.34;101388.94;5266146;54;1140689;-86
2020/12/17 17:11:58;;;;;;;112.57;56.23;;;;;;;4.42;80.26;101382.54;5269218;54;1142659;-86
2020/12/17 17:17:04;;;;;;;86.73;50.40;;;;;;;4.39;80.23;101375.64;5264609;54;1193802;-86
2020/12/17 17:22:10;;;;;;;98.72;62.53;;;;;;;4.34;80.17;101391.98;5271395;54;1138639;-86
2020/12/17 17:27:15;;;;;;;170.85;70.00;;;;;;;4.33;80.16;101386.34;5316772;55;1140288;-86
2020/12/17 17:32:27;;;;;;;348.40;137.13;;;;;;;4.33;80.35;101368.47;5266125;54;1142410;-86
2020/12/17 17:37:31;;;;;;;101.97;44.53;;;;;;;4.29;79.99;101368.18;5257666;54;1142653;-86
2020/12/17 17:42:39;;;;;;;96.03;43.23;;;;;;;4.33;80.11;101377.63;5261351;55;1142923;-87
2020/12/17 17:47:45;;;;;;;68.53;31.27;;;;;;;4.35;80.30;101371.43;5273737;54;1140793;-86
2020/12/17 17:52:55;;;;;;;64.27;27.30;;;;;;;4.35;80.19;101360.10;5253144;55;1138467;-83
2020/12/17 17:57:58;;;;;;;85.80;38.90;;;;;;;4.34;79.71;101363.17;5282836;55;1138247;-84
2020/12/17 18:03:05;;;;;;;60.63;26.33;;;;;;;4.34;79.98;101364.94;5269584;54;1140291;-84
2020/12/17 18:08:12;;;;;;;52.43;28.20;;;;;;;4.32;79.88;101374.16;5384219;55;21188;-84
2020/12/17 18:13:19;;;;;;;53.73;26.93;;;;;;;4.28;80.09;101377.80;5385739;55;21558;-84
2020/12/17 18:18:28;;;;;;;49.42;25.95;;;;;;;4.26;79.97;101381.41;5266665;55;1136263;-83
2020/12/17 18:23:33;;;;;;;45.80;26.07;;;;;;;4.22;80.18;101384.59;5269531;55;1138384;-84
2020/12/17 18:28:43;;;;;;;43.87;17.83;;;;;;;4.20;80.05;101395.58;5378490;55;21140;-83
2020/12/17 18:33:51;;;;;;;45.37;23.93;;;;;;;4.20;80.14;101392.95;5252673;54;1134274;-84
2020/12/17 18:38:57;;;;;;;45.27;23.00;;;;;;;4.16;80.34;101400.06;5385395;55;1134150;-83
2020/12/17 18:44:03;;;;;;;49.53;27.57;;;;;;;4.17;80.07;101398.30;5373850;54;21120;-83
2020/12/17 18:49:10;;;;;;;52.03;27.70;;;;;;;4.13;80.25;101399.31;5373357;55;21180;-83
2020/12/17 18:54:15;;;;;;;78.03;37.63;;;;;;;4.12;80.40;101390.64;5372533;55;21101;-84
2020/12/17 18:59:21;;;;;;;94.23;42.30;;;;;;;4.11;80.28;101388.08;5378523;55;21199;-84
2020/12/17 19:04:27;;;;;;;122.43;55.33;;;;;;;4.08;80.49;101393.42;5291516;54;1134147;-84
2020/12/17 19:09:32;;;;;;;61.70;30.70;;;;;;;4.06;80.44;101389.55;5348830;54;1138620;-84
2020/12/17 19:14:38;;;;;;;104.83;48.80;;;;;;;4.08;80.50;101387.73;5290194;54;1140463;-84
2020/12/17 19:19:43;;;;;;;53.43;28.20;;;;;;;4.09;80.58;101382.04;5275303;54;1140505;-84
2020/12/17 19:24:49;;;;;;;85.67;38.27;;;;;;;4.09;80.51;101375.49;5271571;54;1138744;-84
2020/12/17 19:29:54;;;;;;;54.73;27.40;;;;;;;4.12;80.57;101381.93;5386439;55;21063;-84
2020/12/17 19:35:00;;;;;;;133.43;60.13;;;;;;;4.11;80.53;101382.39;5376657;55;21195;-83
2020/12/17 19:40:10;;;;;;;87.77;40.00;;;;;;;4.11;80.70;101386.31;5376485;55;21566;-83
2020/12/17 19:45:15;;;;;;;162.00;77.10;;;;;;;4.13;80.69;101388.39;5380020;54;21412;-83
2020/12/17 19:50:22;;;;;;;75.43;36.73;;;;;;;4.19;80.73;101386.02;5386423;55;21133;-84
2020/12/17 19:55:28;;;;;;;78.27;36.80;;;;;;;4.20;80.70;101394.27;5260729;55;1134123;-83
2020/12/17 20:00:34;;;;;;;77.40;36.83;;;;;;;4.19;80.61;101389.94;5268344;54;1138593;-83
2020/12/17 20:05:40;;;;;;;90.10;37.00;;;;;;;4.18;80.61;101393.47;5265971;54;1140416;-83
2020/12/17 20:10:47;;;;;;;134.20;56.67;;;;;;;4.19;80.77;101390.80;5379380;55;21180;-83
2020/12/17 20:15:53;;;;;;;76.47;34.03;;;;;;;4.20;80.87;101379.87;5370140;55;21451;-83
2020/12/17 20:20:58;;;;;;;69.80;34.80;;;;;;;4.22;80.67;101385.91;5384327;55;21164;-83
2020/12/17 20:26:04;;;;;;;59.03;26.40;;;;;;;4.18;80.69;101394.32;5311749;54;1134246;-83
2020/12/17 20:31:13;;;;;;;98.43;42.50;;;;;;;4.15;80.80;101397.50;5266955;55;1138460;-83
2020/12/17 20:36:23;;;;;;;95.70;39.53;;;;;;;4.17;80.90;101395.69;5345074;55;1138688;-83
2020/12/17 20:41:31;;;;;;;74.73;34.97;;;;;;;4.22;80.87;101387.21;5272498;55;1140524;-83
2020/12/17 20:46:39;;;;;;;63.43;31.90;;;;;;;4.20;80.99;101400.36;5250549;55;1138439;-83
2020/12/17 20:51:45;;;;;;;60.23;28.57;;;;;;;4.19;81.10;101394.72;5338248;55;1136300;-83
2020/12/17 20:56:50;;;;;;;66.33;31.30;;;;;;;4.23;81.10;101390.23;5266739;55;1138275;-83
2020/12/17 21:01:56;;;;;;;64.83;27.67;;;;;;;4.26;81.08;101396.67;5306233;54;1140629;-83
2020/12/17 21:07:04;;;;;;;64.87;30.97;;;;;;;4.33;81.16;101394.20;5272654;54;1140973;-83
2020/12/17 21:12:11;;;;;;;62.00;29.07;;;;;;;4.36;81.25;101389.31;5338069;55;1138296;-83
2020/12/17 21:17:18;;;;;;;64.15;27.00;;;;;;;4.38;81.09;101392.73;5264769;54;1138675;-83
2020/12/17 21:22:24;;;;;;;143.40;55.73;;;;;;;4.40;80.99;101413.17;5315170;54;1140337;-83
2020/12/17 21:27:30;;;;;;;80.73;30.27;;;;;;;4.35;81.21;101414.64;5366740;55;21377;-83
2020/12/17 21:32:36;;;;;;;62.93;29.00;;;;;;;4.37;81.29;101416.75;5369803;55;21146;-83
2020/12/17 21:37:42;;;;;;;63.17;27.07;;;;;;;4.40;81.34;101416.64;5277316;54;1136219;-83
2020/12/17 21:42:48;;;;;;;72.00;30.08;;;;;;;4.38;81.49;101421.53;5276941;54;1138424;-83
2020/12/17 21:47:54;;;;;;;55.33;24.90;;;;;;;4.38;81.59;101424.16;5383248;55;21065;-83
2020/12/17 21:53:00;;;;;;;75.47;28.60;;;;;;;4.38;81.78;101417.16;5376901;55;21078;-83
2020/12/17 21:58:05;;;;;;;79.87;32.47;;;;;;;4.36;81.83;101411.56;5269839;54;1134224;-83
2020/12/17 22:03:12;;;;;;;68.52;31.20;;;;;;;4.37;81.92;101414.13;5357076;55;1140485;-83
2020/12/17 22:08:18;;;;;;;58.75;25.52;;;;;;;4.34;81.99;101410.77;5270722;54;1138638;-83
2020/12/17 22:13:24;;;;;;;55.10;26.60;;;;;;;4.35;82.14;101417.26;5275134;54;1138312;-83
2020/12/17 22:18:30;;;;;;;52.73;25.00;;;;;;;4.37;82.23;101414.13;5342776;54;1140555;-83
2020/12/17 22:23:35;;;;;;;58.67;26.17;;;;;;;4.39;82.30;101421.48;5270354;55;1140586;-83
2020/12/17 22:28:41;;;;;;;41.47;17.90;;;;;;;4.37;82.40;101426.37;5306075;54;1138328;-83
2020/12/17 22:33:46;;;;;;;42.53;20.17;;;;;;;4.38;82.50;101417.16;5334737;55;1138416;-83
2020/12/17 22:38:55;;;;;;;38.97;18.63;;;;;;;4.41;82.43;101422.73;5275593;54;1140386;-83
2020/12/17 22:44:06;;;;;;;48.77;24.13;;;;;;;4.32;82.54;101406.89;5314652;54;1138455;-83
2020/12/17 22:49:11;;;;;;;49.97;24.20;;;;;;;4.39;82.42;101408.39;5264785;54;1140862;-83
2020/12/17 22:54:17;;;;;;;97.37;35.38;;;;;;;4.39;82.40;101424.55;5271866;54;1140339;-83
2020/12/17 22:59:22;;;;;;;44.90;18.77;;;;;;;4.34;82.25;101420.78;5380259;55;21475;-83
2020/12/17 23:04:28;;;;;;;60.67;26.80;;;;;;;4.32;82.22;101430.91;5373397;55;21262;-83